createdAt,value
2018-10-19T00:00:27.713Z,0.00
2018-10-19T00:02:20.698Z,0.00
2018-10-19T00:03:20.755Z,0.00
2018-10-19T00:05:13.804Z,0.00
2018-10-19T00:06:13.821Z,0.00
2018-10-19T00:08:06.812Z,0.00
2018-10-19T00:09:06.863Z,0.00
2018-10-19T00:10:59.870Z,0.00
2018-10-19T00:11:59.899Z,0.00
2018-10-19T00:13:52.896Z,0.00
2018-10-19T00:14:52.970Z,0.00
2018-10-19T00:16:45.957Z,0.00
2018-10-19T00:17:45.984Z,0.00
2018-10-19T00:19:38.974Z,0.00
2018-10-19T00:20:39.025Z,0.00
2018-10-19T00:22:32.011Z,0.00
2018-10-19T00:23:32.068Z,0.00
2018-10-19T00:25:25.567Z,0.00
2018-10-19T00:26:25.620Z,0.00
2018-10-19T00:28:18.641Z,0.00
2018-10-19T00:29:18.671Z,0.00
2018-10-19T00:31:11.659Z,0.00
2018-10-19T00:32:11.707Z,0.00
2018-10-19T00:34:04.704Z,0.00
2018-10-19T00:35:04.782Z,0.00
2018-10-19T00:36:57.730Z,0.00
2018-10-19T00:37:57.788Z,0.00
2018-10-19T00:39:50.770Z,0.00
2018-10-19T00:40:50.827Z,0.00
2018-10-19T00:42:43.809Z,0.00
2018-10-19T00:43:43.866Z,0.00
2018-10-19T00:45:36.858Z,0.00
2018-10-19T00:46:36.907Z,0.00
2018-10-19T00:48:29.900Z,0.00
2018-10-19T00:49:29.956Z,0.00
2018-10-19T00:51:22.952Z,0.00
2018-10-19T00:52:23.024Z,0.00
2018-10-19T00:54:15.994Z,0.00
2018-10-19T00:55:16.049Z,0.00
2018-10-19T00:57:09.081Z,0.00
2018-10-19T00:58:09.095Z,0.00
2018-10-19T01:00:02.083Z,0.00
2018-10-19T01:01:02.135Z,0.00
2018-10-19T01:02:55.144Z,0.00
2018-10-19T01:03:55.172Z,0.00
2018-10-19T01:05:48.164Z,0.00
2018-10-19T01:06:48.212Z,0.00
2018-10-19T01:08:41.195Z,0.00
2018-10-19T01:09:41.253Z,0.00
2018-10-19T01:11:34.245Z,0.00
2018-10-19T01:12:34.316Z,0.00
2018-10-19T01:14:27.286Z,0.00
2018-10-19T01:15:27.343Z,0.00
2018-10-19T01:17:20.335Z,0.00
2018-10-19T01:18:20.388Z,0.00
2018-10-19T01:20:13.369Z,0.00
2018-10-19T01:21:13.490Z,0.00
2018-10-19T01:23:06.477Z,0.00
2018-10-19T01:24:06.466Z,0.00
2018-10-19T01:25:59.965Z,0.00
2018-10-19T01:27:00.074Z,0.00
2018-10-19T01:28:53.024Z,0.00
2018-10-19T01:29:53.059Z,0.00
2018-10-19T01:31:46.062Z,0.00
2018-10-19T01:32:46.101Z,0.00
2018-10-19T01:34:39.085Z,0.00
2018-10-19T01:35:39.147Z,0.00
2018-10-19T01:37:32.136Z,0.00
2018-10-19T01:38:32.184Z,0.00
2018-10-19T01:40:25.167Z,0.00
2018-10-19T01:41:25.225Z,0.00
2018-10-19T01:43:18.212Z,0.00
2018-10-19T01:44:18.265Z,0.00
2018-10-19T01:46:11.245Z,0.00
2018-10-19T01:47:11.384Z,0.00
2018-10-19T01:49:04.297Z,0.00
2018-10-19T01:50:04.348Z,0.00
2018-10-19T01:51:57.346Z,0.00
2018-10-19T01:52:57.403Z,0.00
2018-10-19T01:54:50.369Z,0.00
2018-10-19T01:55:50.429Z,0.00
2018-10-19T01:57:43.420Z,0.00
2018-10-19T01:58:43.469Z,0.00
2018-10-19T02:00:36.455Z,0.00
2018-10-19T02:01:36.513Z,0.00
2018-10-19T02:03:29.506Z,0.00
2018-10-19T02:04:29.560Z,0.00
2018-10-19T02:06:22.538Z,0.00
2018-10-19T02:07:22.593Z,0.00
2018-10-19T02:09:15.589Z,0.00
2018-10-19T02:10:15.641Z,0.00
2018-10-19T02:12:08.633Z,0.00
2018-10-19T02:13:08.713Z,0.00
2018-10-19T02:15:01.735Z,0.00
2018-10-19T02:16:01.731Z,0.00
2018-10-19T02:17:54.724Z,0.00
2018-10-19T02:18:54.779Z,0.00
2018-10-19T02:20:47.763Z,0.00
2018-10-19T02:21:47.823Z,0.00
2018-10-19T02:23:40.821Z,0.00
2018-10-19T02:24:40.876Z,0.00
2018-10-19T02:26:33.860Z,0.00
2018-10-19T02:27:33.918Z,0.00
2018-10-19T02:29:26.901Z,0.00
2018-10-19T02:30:26.956Z,0.00
2018-10-19T02:32:19.944Z,0.00
2018-10-19T02:33:20.058Z,0.00
2018-10-19T02:35:13.037Z,0.00
2018-10-19T02:36:13.034Z,0.00
2018-10-19T02:38:06.020Z,0.00
2018-10-19T02:39:06.143Z,0.00
2018-10-19T02:40:59.094Z,0.00
2018-10-19T02:41:59.124Z,0.00
2018-10-19T02:43:52.115Z,0.00
2018-10-19T02:44:52.187Z,0.00
2018-10-19T02:46:45.146Z,0.00
2018-10-19T02:47:45.204Z,0.00
2018-10-19T02:49:38.198Z,0.00
2018-10-19T02:50:38.250Z,0.00
2018-10-19T02:52:31.236Z,0.00
2018-10-19T02:53:31.296Z,0.00
2018-10-19T02:55:24.299Z,0.00
2018-10-19T02:56:24.357Z,0.00
2018-10-19T02:58:17.325Z,0.00
2018-10-19T02:59:17.480Z,0.00
2018-10-19T03:01:10.374Z,0.00
2018-10-19T03:02:10.428Z,0.00
2018-10-19T03:04:03.404Z,0.00
2018-10-19T03:05:03.514Z,0.00
2018-10-19T03:06:56.462Z,0.00
2018-10-19T03:07:56.520Z,0.00
2018-10-19T03:09:49.509Z,0.00
2018-10-19T03:10:49.557Z,0.00
2018-10-19T03:12:42.538Z,0.00
2018-10-19T03:13:42.598Z,0.00
2018-10-19T03:15:35.588Z,0.00
2018-10-19T03:16:35.639Z,0.00
2018-10-19T03:18:28.620Z,0.00
2018-10-19T03:19:28.679Z,0.00
2018-10-19T03:21:21.670Z,0.00
2018-10-19T03:22:21.717Z,0.00
2018-10-19T03:24:14.701Z,0.00
2018-10-19T03:25:14.763Z,0.00
2018-10-19T03:27:07.770Z,0.00
2018-10-19T03:28:07.826Z,0.00
2018-10-19T03:30:00.779Z,0.00
2018-10-19T03:31:00.915Z,0.00
2018-10-19T03:32:53.849Z,0.00
2018-10-19T03:33:53.879Z,0.00
2018-10-19T03:35:46.871Z,0.00
2018-10-19T03:36:46.917Z,0.00
2018-10-19T03:38:39.904Z,0.00
2018-10-19T03:39:39.958Z,0.00
2018-10-19T03:41:32.972Z,0.00
2018-10-19T03:42:33.002Z,0.00
2018-10-19T03:44:26.045Z,0.00
2018-10-19T03:45:26.049Z,0.00
2018-10-19T03:47:19.111Z,0.00
2018-10-19T03:48:19.093Z,0.00
2018-10-19T03:50:12.079Z,0.00
2018-10-19T03:51:12.222Z,0.00
2018-10-19T03:53:05.179Z,0.00
2018-10-19T03:54:05.177Z,0.00
2018-10-19T03:55:58.156Z,0.00
2018-10-19T03:56:58.255Z,0.00
2018-10-19T03:58:51.206Z,0.00
2018-10-19T03:59:51.252Z,0.00
2018-10-19T04:01:44.252Z,0.00
2018-10-19T04:02:44.290Z,0.00
2018-10-19T04:04:37.276Z,0.00
2018-10-19T04:05:37.330Z,0.00
2018-10-19T04:07:30.323Z,0.00
2018-10-19T04:08:30.379Z,0.00
2018-10-19T04:10:23.356Z,0.00
2018-10-19T04:11:23.419Z,0.00
2018-10-19T04:13:16.394Z,0.00
2018-10-19T04:14:16.457Z,0.00
2018-10-19T04:16:09.438Z,0.00
2018-10-19T04:17:09.628Z,0.00
2018-10-19T04:19:02.506Z,0.00
2018-10-19T04:20:02.537Z,0.00
2018-10-19T04:21:55.519Z,0.00
2018-10-19T04:22:55.802Z,0.00
2018-10-19T04:24:48.571Z,0.00
2018-10-19T04:25:48.623Z,0.00
2018-10-19T04:27:41.716Z,0.00
2018-10-19T04:28:41.673Z,0.00
2018-10-19T04:30:34.645Z,0.00
2018-10-19T04:31:34.702Z,0.00
2018-10-19T04:33:27.689Z,0.00
2018-10-19T04:34:27.742Z,0.00
2018-10-19T04:36:20.727Z,0.00
2018-10-19T04:37:20.785Z,0.00
2018-10-19T04:39:13.912Z,0.00
2018-10-19T04:40:13.833Z,0.00
2018-10-19T04:42:06.959Z,0.00
2018-10-19T04:43:06.877Z,0.00
2018-10-19T04:44:59.900Z,0.00
2018-10-19T04:45:59.920Z,0.00
2018-10-19T04:47:53.076Z,0.00
2018-10-19T04:48:52.959Z,0.00
2018-10-19T04:50:45.945Z,0.00
2018-10-19T04:51:45.999Z,0.00
2018-10-19T04:53:39.053Z,0.00
2018-10-19T04:54:39.036Z,0.00
2018-10-19T04:56:32.020Z,0.00
2018-10-19T04:57:32.076Z,0.00
2018-10-19T04:59:25.061Z,0.00
2018-10-19T05:00:25.127Z,0.00
2018-10-19T05:02:18.096Z,0.00
2018-10-19T05:03:18.286Z,0.00
2018-10-19T05:05:11.680Z,0.00
2018-10-19T05:06:11.772Z,0.00
2018-10-19T05:08:04.700Z,0.00
2018-10-19T05:09:04.741Z,0.00
2018-10-19T05:10:57.763Z,0.00
2018-10-19T05:11:57.778Z,0.00
2018-10-19T05:13:50.778Z,0.00
2018-10-19T05:14:50.823Z,0.00
2018-10-19T05:16:43.806Z,0.00
2018-10-19T05:17:43.869Z,0.00
2018-10-19T05:19:36.857Z,0.00
2018-10-19T05:20:36.911Z,0.00
2018-10-19T05:22:29.903Z,0.00
2018-10-19T05:23:29.952Z,0.00
2018-10-19T05:25:22.937Z,0.00
2018-10-19T05:26:22.989Z,0.00
2018-10-19T05:28:15.969Z,4.00
2018-10-19T05:29:16.109Z,4.00
2018-10-19T05:31:09.019Z,4.00
2018-10-19T05:32:09.068Z,0.00
2018-10-19T05:34:02.054Z,4.00
2018-10-19T05:35:02.216Z,4.00
2018-10-19T05:36:55.091Z,8.00
2018-10-19T05:37:55.150Z,12.00
2018-10-19T05:39:48.133Z,12.00
2018-10-19T05:40:48.181Z,16.00
2018-10-19T05:42:41.181Z,24.00
2018-10-19T05:43:41.283Z,28.00
2018-10-19T05:45:34.208Z,36.00
2018-10-19T05:46:34.260Z,48.00
2018-10-19T05:48:27.247Z,64.00
2018-10-19T05:49:27.303Z,72.00
2018-10-19T05:51:20.294Z,96.00
2018-10-19T05:52:20.346Z,112.00
2018-10-19T05:54:13.327Z,140.00
2018-10-19T05:55:13.385Z,160.00
2018-10-19T05:57:06.373Z,192.00
2018-10-19T05:58:06.421Z,212.00
2018-10-19T05:59:59.403Z,252.00
2018-10-19T06:00:59.460Z,272.00
2018-10-19T06:02:52.451Z,304.00
2018-10-19T06:03:52.499Z,320.00
2018-10-19T06:05:45.996Z,356.00
2018-10-19T06:06:46.046Z,380.00
2018-10-19T06:08:39.026Z,424.00
2018-10-19T06:09:39.086Z,452.00
2018-10-19T06:11:32.067Z,512.00
2018-10-19T06:12:32.120Z,544.00
2018-10-19T06:14:25.102Z,608.00
2018-10-19T06:15:25.162Z,644.00
2018-10-19T06:17:18.148Z,712.00
2018-10-19T06:18:18.199Z,752.00
2018-10-19T06:20:11.230Z,828.00
2018-10-19T06:21:11.272Z,868.00
2018-10-19T06:23:04.234Z,944.00
2018-10-19T06:24:04.283Z,984.00
2018-10-19T06:25:57.378Z,1060.00
2018-10-19T06:26:57.327Z,1084.00
2018-10-19T06:28:50.317Z,1140.00
2018-10-19T06:29:50.366Z,1172.00
2018-10-19T06:31:43.353Z,1256.00
2018-10-19T06:32:43.400Z,1308.00
2018-10-19T06:34:36.379Z,1400.00
2018-10-19T06:35:36.439Z,1436.00
2018-10-19T06:37:29.444Z,1508.00
2018-10-19T06:38:29.496Z,1532.00
2018-10-19T06:40:22.487Z,1532.00
2018-10-19T06:41:22.543Z,1544.00
2018-10-19T06:43:15.526Z,1592.00
2018-10-19T06:44:15.680Z,1632.00
2018-10-19T06:46:08.563Z,1732.00
2018-10-19T06:47:08.717Z,1792.00
2018-10-19T06:49:01.700Z,1960.00
2018-10-19T06:50:01.681Z,2100.00
2018-10-19T06:51:54.659Z,2360.00
2018-10-19T06:52:54.720Z,2400.00
2018-10-19T06:54:47.683Z,2316.00
2018-10-19T06:55:47.740Z,2376.00
2018-10-19T06:57:40.734Z,2536.00
2018-10-19T06:58:40.781Z,2600.00
2018-10-19T07:00:33.763Z,2756.00
2018-10-19T07:01:33.822Z,2888.00
2018-10-19T07:03:26.813Z,3172.00
2018-10-19T07:04:26.862Z,3272.00
2018-10-19T07:06:20.352Z,3464.00
2018-10-19T07:07:20.409Z,3548.00
2018-10-19T07:09:13.393Z,3744.00
2018-10-19T07:10:13.451Z,3824.00
2018-10-19T07:12:06.486Z,4020.00
2018-10-19T07:13:06.490Z,4112.00
2018-10-19T07:14:59.478Z,4256.00
2018-10-19T07:15:59.641Z,4368.00
2018-10-19T07:17:52.510Z,4672.00
2018-10-19T07:18:52.566Z,4836.00
2018-10-19T07:20:45.551Z,5444.00
2018-10-19T07:21:45.659Z,6020.00
2018-10-19T07:23:38.595Z,7496.00
2018-10-19T07:24:38.648Z,8088.00
2018-10-19T07:26:31.628Z,8224.00
2018-10-19T07:27:31.687Z,8364.00
2018-10-19T07:29:24.748Z,8348.00
2018-10-19T07:30:24.725Z,7616.00
2018-10-19T07:32:17.712Z,7176.00
2018-10-19T07:33:17.768Z,8532.00
2018-10-19T07:35:10.802Z,8728.00
2018-10-19T07:36:10.836Z,8656.00
2018-10-19T07:38:03.832Z,8656.00
2018-10-19T07:39:03.851Z,8548.00
2018-10-19T07:40:56.846Z,8004.00
2018-10-19T07:41:56.930Z,7920.00
2018-10-19T07:43:49.883Z,8180.00
2018-10-19T07:44:49.939Z,8124.00
2018-10-19T07:46:42.924Z,8060.00
2018-10-19T07:47:43.058Z,8076.00
2018-10-19T07:49:35.969Z,7404.00
2018-10-19T07:50:36.028Z,7260.00
2018-10-19T07:52:29.019Z,8436.00
2018-10-19T07:53:29.085Z,8896.00
2018-10-19T07:55:22.074Z,8724.00
2018-10-19T07:56:22.132Z,8808.00
2018-10-19T07:58:15.120Z,8800.00
2018-10-19T07:59:15.236Z,8728.00
2018-10-19T08:01:08.187Z,8560.00
2018-10-19T08:02:08.243Z,8504.00
2018-10-19T08:04:01.222Z,8528.00
2018-10-19T08:05:01.312Z,8692.00
2018-10-19T08:06:54.262Z,8684.00
2018-10-19T08:07:54.330Z,9292.00
2018-10-19T08:09:47.316Z,9124.00
2018-10-19T08:10:47.368Z,8472.00
2018-10-19T08:12:40.362Z,8576.00
2018-10-19T08:13:40.419Z,8484.00
2018-10-19T08:15:33.461Z,8896.00
2018-10-19T08:16:33.522Z,8936.00
2018-10-19T08:18:26.503Z,9000.00
2018-10-19T08:19:26.564Z,9112.00
2018-10-19T08:21:19.569Z,9340.00
2018-10-19T08:22:19.614Z,9392.00
2018-10-19T08:24:12.603Z,9472.00
2018-10-19T08:25:12.668Z,9424.00
2018-10-19T08:27:05.666Z,9232.00
2018-10-19T08:28:05.718Z,9256.00
2018-10-19T08:29:58.720Z,9172.00
2018-10-19T08:30:58.762Z,9252.00
2018-10-19T08:32:51.752Z,9400.00
2018-10-19T08:33:51.812Z,9372.00
2018-10-19T08:35:44.808Z,9248.00
2018-10-19T08:36:44.861Z,9348.00
2018-10-19T08:38:37.850Z,9236.00
2018-10-19T08:39:37.913Z,9144.00
2018-10-19T08:41:30.926Z,9096.00
2018-10-19T08:42:30.960Z,9072.00
2018-10-19T08:44:23.948Z,9264.00
2018-10-19T08:45:24.010Z,9104.00
2018-10-19T08:47:17.008Z,8924.00
2018-10-19T08:48:17.061Z,8740.00
2018-10-19T08:50:10.049Z,8608.00
2018-10-19T08:51:10.164Z,8584.00
2018-10-19T08:53:03.170Z,8644.00
2018-10-19T08:54:03.167Z,8556.00
2018-10-19T08:55:56.174Z,8264.00
2018-10-19T08:56:56.254Z,8056.00
2018-10-19T08:58:49.218Z,7508.00
2018-10-19T08:59:49.284Z,7272.00
2018-10-19T09:01:42.279Z,6796.00
2018-10-19T09:02:42.370Z,6640.00
2018-10-19T09:04:35.320Z,6480.00
2018-10-19T09:05:35.392Z,6412.00
2018-10-19T09:07:28.384Z,6328.00
2018-10-19T09:08:28.441Z,6316.00
2018-10-19T09:10:21.436Z,6280.00
2018-10-19T09:11:21.585Z,6272.00
2018-10-19T09:13:14.488Z,6252.00
2018-10-19T09:14:14.541Z,6260.00
2018-10-19T09:16:07.537Z,6156.00
2018-10-19T09:17:07.618Z,6120.00
2018-10-19T09:19:00.579Z,6016.00
2018-10-19T09:20:00.643Z,5908.00
2018-10-19T09:21:53.631Z,5956.00
2018-10-19T09:22:53.689Z,6004.00
2018-10-19T09:24:46.686Z,6048.00
2018-10-19T09:25:46.735Z,6052.00
2018-10-19T09:27:39.729Z,5996.00
2018-10-19T09:28:39.781Z,5936.00
2018-10-19T09:30:32.775Z,5852.00
2018-10-19T09:31:32.833Z,5868.00
2018-10-19T09:33:25.829Z,5896.00
2018-10-19T09:34:25.881Z,5876.00
2018-10-19T09:36:19.018Z,5828.00
2018-10-19T09:37:18.941Z,5804.00
2018-10-19T09:39:11.964Z,5656.00
2018-10-19T09:40:12.023Z,5560.00
2018-10-19T09:42:05.051Z,5464.00
2018-10-19T09:43:05.082Z,5440.00
2018-10-19T09:44:58.079Z,5560.00
2018-10-19T09:45:58.090Z,5600.00
2018-10-19T09:47:51.083Z,5564.00
2018-10-19T09:48:51.364Z,5580.00
2018-10-19T09:50:44.121Z,5680.00
2018-10-19T09:51:44.184Z,5696.00
2018-10-19T09:53:37.177Z,5928.00
2018-10-19T09:54:37.224Z,6032.00
2018-10-19T09:56:30.210Z,6060.00
2018-10-19T09:57:30.272Z,6056.00
2018-10-19T09:59:23.265Z,5912.00
2018-10-19T10:00:23.322Z,5876.00
2018-10-19T10:02:16.320Z,5852.00
2018-10-19T10:03:16.454Z,5820.00
2018-10-19T10:05:09.376Z,5800.00
2018-10-19T10:06:09.417Z,5788.00
2018-10-19T10:08:02.512Z,5904.00
2018-10-19T10:09:02.551Z,6032.00
2018-10-19T10:10:55.464Z,6168.00
2018-10-19T10:11:55.521Z,6208.00
2018-10-19T10:13:48.519Z,6152.00
2018-10-19T10:14:48.648Z,6072.00
2018-10-19T10:16:41.579Z,5980.00
2018-10-19T10:17:41.624Z,5956.00
2018-10-19T10:19:34.619Z,5936.00
2018-10-19T10:20:34.681Z,5992.00
2018-10-19T10:22:27.660Z,6144.00
2018-10-19T10:23:27.737Z,6232.00
2018-10-19T10:25:20.848Z,6396.00
2018-10-19T10:26:20.774Z,6440.00
2018-10-19T10:28:13.811Z,6572.00
2018-10-19T10:29:13.810Z,6588.00
2018-10-19T10:31:06.817Z,6636.00
2018-10-19T10:32:06.883Z,6608.00
2018-10-19T10:33:59.906Z,6488.00
2018-10-19T10:34:59.910Z,6488.00
2018-10-19T10:36:52.956Z,6472.00
2018-10-19T10:37:52.955Z,6564.00
2018-10-19T10:39:45.948Z,6612.00
2018-10-19T10:40:46.000Z,6548.00
2018-10-19T10:42:39.019Z,6468.00
2018-10-19T10:43:39.082Z,6440.00
2018-10-19T10:45:32.072Z,6392.00
2018-10-19T10:46:32.136Z,6372.00
2018-10-19T10:48:25.127Z,6316.00
2018-10-19T10:49:25.180Z,6284.00
2018-10-19T10:51:18.169Z,6136.00
2018-10-19T10:52:18.228Z,6000.00
2018-10-19T10:54:11.223Z,5792.00
2018-10-19T10:55:11.332Z,5768.00
2018-10-19T10:57:04.268Z,5764.00
2018-10-19T10:58:04.362Z,5752.00
2018-10-19T10:59:57.325Z,5752.00
2018-10-19T11:00:57.414Z,5720.00
2018-10-19T11:02:50.368Z,5736.00
2018-10-19T11:03:50.431Z,5704.00
2018-10-19T11:05:43.925Z,5548.00
2018-10-19T11:06:43.983Z,5456.00
2018-10-19T11:08:37.011Z,5296.00
2018-10-19T11:09:37.033Z,5184.00
2018-10-19T11:11:30.030Z,4944.00
2018-10-19T11:12:30.091Z,4804.00
2018-10-19T11:14:23.084Z,4624.00
2018-10-19T11:15:23.135Z,4576.00
2018-10-19T11:17:16.124Z,4356.00
2018-10-19T11:18:16.183Z,4268.00
2018-10-19T11:20:09.178Z,4008.00
2018-10-19T11:21:09.239Z,3928.00
2018-10-19T11:23:02.231Z,3804.00
2018-10-19T11:24:02.306Z,3764.00
2018-10-19T11:25:55.286Z,3708.00
2018-10-19T11:26:55.338Z,3716.00
2018-10-19T11:28:48.377Z,3844.00
2018-10-19T11:29:48.388Z,3972.00
2018-10-19T11:31:41.376Z,4132.00
2018-10-19T11:32:41.435Z,4148.00
2018-10-19T11:34:34.442Z,4128.00
2018-10-19T11:35:34.493Z,4096.00
2018-10-19T11:37:27.526Z,3980.00
2018-10-19T11:38:27.543Z,3972.00
2018-10-19T11:40:20.540Z,3892.00
2018-10-19T11:41:20.590Z,3880.00
2018-10-19T11:43:13.633Z,3940.00
2018-10-19T11:44:13.645Z,3952.00
2018-10-19T11:46:06.706Z,4040.00
2018-10-19T11:47:06.692Z,4100.00
2018-10-19T11:48:59.725Z,4340.00
2018-10-19T11:49:59.734Z,4488.00
2018-10-19T11:51:52.732Z,4660.00
2018-10-19T11:52:52.779Z,4644.00
2018-10-19T11:54:45.804Z,4852.00
2018-10-19T11:55:45.828Z,4900.00
2018-10-19T11:57:38.813Z,4888.00
2018-10-19T11:58:38.872Z,4832.00
2018-10-19T12:00:31.869Z,4788.00
2018-10-19T12:01:31.924Z,4796.00
2018-10-19T12:03:24.965Z,4880.00
2018-10-19T12:04:24.975Z,4980.00
2018-10-19T12:06:17.962Z,5164.00
2018-10-19T12:07:18.018Z,5304.00
2018-10-19T12:09:11.004Z,5512.00
2018-10-19T12:10:11.190Z,5592.00
2018-10-19T12:12:06.823Z,5640.00
2018-10-19T12:13:06.097Z,5620.00
2018-10-19T12:14:59.635Z,5456.00
2018-10-19T12:15:59.690Z,5316.00
2018-10-19T12:17:52.631Z,4976.00
2018-10-19T12:18:52.707Z,4760.00
2018-10-19T12:20:46.219Z,4396.00
2018-10-19T12:21:46.247Z,4244.00
2018-10-19T12:23:40.061Z,4004.00
2018-10-19T12:24:39.798Z,3900.00
2018-10-19T12:26:32.795Z,3792.00
2018-10-19T12:27:32.847Z,3732.00
2018-10-19T12:29:25.831Z,3636.00
2018-10-19T12:30:25.892Z,3620.00
2018-10-19T12:32:18.887Z,3752.00
2018-10-19T12:33:18.938Z,3824.00
2018-10-19T12:35:11.923Z,4092.00
2018-10-19T12:36:12.005Z,4136.00
2018-10-19T12:38:04.979Z,4056.00
2018-10-19T12:39:05.055Z,3920.00
2018-10-19T12:40:58.081Z,3624.00
2018-10-19T12:41:58.082Z,3568.00
2018-10-19T12:43:51.079Z,3476.00
2018-10-19T12:44:51.134Z,3408.00
2018-10-19T12:46:44.126Z,3256.00
2018-10-19T12:47:44.180Z,3160.00
2018-10-19T12:49:37.172Z,3000.00
2018-10-19T12:50:37.231Z,2864.00
2018-10-19T12:52:30.226Z,2708.00
2018-10-19T12:53:30.280Z,2596.00
2018-10-19T12:55:23.267Z,2356.00
2018-10-19T12:56:23.327Z,2408.00
2018-10-19T12:58:16.321Z,2628.00
2018-10-19T12:59:16.384Z,2576.00
2018-10-19T13:01:09.366Z,2732.00
2018-10-19T13:02:09.420Z,2784.00
2018-10-19T13:04:02.415Z,2800.00
2018-10-19T13:05:02.465Z,2888.00
2018-10-19T13:06:55.494Z,2928.00
2018-10-19T13:07:55.512Z,2884.00
2018-10-19T13:09:48.510Z,2784.00
2018-10-19T13:10:48.569Z,2716.00
2018-10-19T13:12:41.573Z,2692.00
2018-10-19T13:13:41.621Z,2740.00
2018-10-19T13:15:34.607Z,2772.00
2018-10-19T13:16:34.670Z,2896.00
2018-10-19T13:18:27.681Z,3232.00
2018-10-19T13:19:27.735Z,3428.00
2018-10-19T13:21:20.731Z,3704.00
2018-10-19T13:22:20.782Z,3844.00
2018-10-19T13:24:14.386Z,4100.00
2018-10-19T13:25:14.363Z,4164.00
2018-10-19T13:27:07.361Z,4140.00
2018-10-19T13:28:07.400Z,4008.00
2018-10-19T13:30:00.560Z,3924.00
2018-10-19T13:31:00.445Z,3972.00
2018-10-19T13:32:53.448Z,3920.00
2018-10-19T13:33:53.497Z,4000.00
2018-10-19T13:35:46.480Z,4072.00
2018-10-19T13:36:46.543Z,4232.00
2018-10-19T13:38:39.537Z,4232.00
2018-10-19T13:39:39.594Z,4344.00
2018-10-19T13:41:32.640Z,4684.00
2018-10-19T13:42:32.755Z,4808.00
2018-10-19T13:44:25.636Z,5008.00
2018-10-19T13:45:25.741Z,5108.00
2018-10-19T13:47:18.675Z,5268.00
2018-10-19T13:48:18.734Z,5336.00
2018-10-19T13:50:11.730Z,5284.00
2018-10-19T13:51:11.884Z,5368.00
2018-10-19T13:53:04.802Z,5148.00
2018-10-19T13:54:04.828Z,5272.00
2018-10-19T13:55:57.817Z,5252.00
2018-10-19T13:56:58.105Z,5344.00
2018-10-19T13:58:50.873Z,5756.00
2018-10-19T13:59:50.929Z,5924.00
2018-10-19T14:01:43.913Z,5824.00
2018-10-19T14:02:43.977Z,5552.00
2018-10-19T14:04:37.023Z,5104.00
2018-10-19T14:05:37.247Z,5096.00
2018-10-19T14:07:30.018Z,5136.00
2018-10-19T14:08:30.084Z,5112.00
2018-10-19T14:10:23.074Z,5152.00
2018-10-19T14:11:23.125Z,5212.00
2018-10-19T14:13:16.134Z,5420.00
2018-10-19T14:14:16.178Z,5372.00
2018-10-19T14:16:09.168Z,4904.00
2018-10-19T14:17:09.293Z,4572.00
2018-10-19T14:19:02.289Z,3956.00
2018-10-19T14:20:02.275Z,3724.00
2018-10-19T14:21:55.260Z,3416.00
2018-10-19T14:22:55.359Z,3220.00
2018-10-19T14:24:48.828Z,2908.00
2018-10-19T14:25:48.884Z,2796.00
2018-10-19T14:27:41.909Z,2500.00
2018-10-19T14:28:41.933Z,2364.00
2018-10-19T14:30:34.923Z,2140.00
2018-10-19T14:31:34.980Z,2044.00
2018-10-19T14:33:28.170Z,1932.00
2018-10-19T14:34:28.038Z,1892.00
2018-10-19T14:36:21.030Z,1792.00
2018-10-19T14:37:21.084Z,1732.00
2018-10-19T14:39:14.160Z,1612.00
2018-10-19T14:40:14.152Z,1568.00
2018-10-19T14:42:07.196Z,1496.00
2018-10-19T14:43:07.200Z,1460.00
2018-10-19T14:45:00.234Z,1416.00
2018-10-19T14:46:00.243Z,1392.00
2018-10-19T14:47:53.240Z,1356.00
2018-10-19T14:48:53.370Z,1336.00
2018-10-19T14:50:46.278Z,1312.00
2018-10-19T14:51:46.340Z,1300.00
2018-10-19T14:53:39.319Z,1288.00
2018-10-19T14:54:39.464Z,1280.00
2018-10-19T14:56:32.370Z,1336.00
2018-10-19T14:57:32.425Z,1392.00
2018-10-19T14:59:25.421Z,1524.00
2018-10-19T15:00:25.476Z,1604.00
2018-10-19T15:02:18.469Z,1768.00
2018-10-19T15:03:18.522Z,1864.00
2018-10-19T15:05:11.583Z,2028.00
2018-10-19T15:06:11.577Z,2076.00
2018-10-19T15:08:04.562Z,2128.00
2018-10-19T15:09:04.670Z,2152.00
2018-10-19T15:10:58.326Z,2200.00
2018-10-19T15:11:58.251Z,2224.00
2018-10-19T15:13:51.165Z,2260.00
2018-10-19T15:14:51.226Z,2272.00
2018-10-19T15:16:44.221Z,2304.00
2018-10-19T15:17:44.272Z,2344.00
2018-10-19T15:19:37.266Z,2516.00
2018-10-19T15:20:37.327Z,2624.00
2018-10-19T15:22:30.322Z,2776.00
2018-10-19T15:23:30.376Z,2872.00
2018-10-19T15:25:23.373Z,3132.00
2018-10-19T15:26:23.456Z,3244.00
2018-10-19T15:28:16.403Z,3288.00
2018-10-19T15:29:16.534Z,3360.00
2018-10-19T15:31:09.457Z,3620.00
2018-10-19T15:32:09.517Z,3784.00
2018-10-19T15:34:02.498Z,3764.00
2018-10-19T15:35:02.556Z,3568.00
2018-10-19T15:36:55.545Z,3144.00
2018-10-19T15:37:55.639Z,2952.00
2018-10-19T15:39:48.595Z,2736.00
2018-10-19T15:40:48.659Z,2564.00
2018-10-19T15:42:41.652Z,2144.00
2018-10-19T15:43:41.707Z,1908.00
2018-10-19T15:45:34.693Z,1596.00
2018-10-19T15:46:34.854Z,1488.00
2018-10-19T15:48:27.753Z,1328.00
2018-10-19T15:49:27.809Z,1256.00
2018-10-19T15:51:20.798Z,1144.00
2018-10-19T15:52:20.854Z,1096.00
2018-10-19T15:54:13.880Z,1028.00
2018-10-19T15:55:13.902Z,992.00
2018-10-19T15:57:06.910Z,932.00
2018-10-19T15:58:06.948Z,900.00
2018-10-19T15:59:59.996Z,844.00
2018-10-19T16:00:59.995Z,816.00
2018-10-19T16:02:53.044Z,764.00
2018-10-19T16:03:53.038Z,740.00
2018-10-19T16:05:46.023Z,680.00
2018-10-19T16:06:46.083Z,656.00
2018-10-19T16:08:39.071Z,604.00
2018-10-19T16:09:39.127Z,580.00
2018-10-19T16:11:32.633Z,532.00
2018-10-19T16:12:32.679Z,512.00
2018-10-19T16:14:25.663Z,464.00
2018-10-19T16:15:25.722Z,440.00
2018-10-19T16:17:19.224Z,396.00
2018-10-19T16:18:19.276Z,372.00
2018-10-19T16:20:12.263Z,332.00
2018-10-19T16:21:12.394Z,308.00
2018-10-19T16:23:05.310Z,272.00
2018-10-19T16:24:05.426Z,252.00
2018-10-19T16:25:58.348Z,220.00
2018-10-19T16:26:58.451Z,200.00
2018-10-19T16:28:51.402Z,168.00
2018-10-19T16:29:51.455Z,156.00
2018-10-19T16:31:44.462Z,124.00
2018-10-19T16:32:44.513Z,112.00
2018-10-19T16:34:37.539Z,92.00
2018-10-19T16:35:37.560Z,80.00
2018-10-19T16:37:30.548Z,60.00
2018-10-19T16:38:30.606Z,56.00
2018-10-19T16:40:23.628Z,44.00
2018-10-19T16:41:23.646Z,36.00
2018-10-19T16:43:16.640Z,28.00
2018-10-19T16:44:16.688Z,24.00
2018-10-19T16:46:09.693Z,16.00
2018-10-19T16:47:09.739Z,16.00
2018-10-19T16:49:02.727Z,8.00
2018-10-19T16:50:02.781Z,8.00
2018-10-19T16:51:55.830Z,8.00
2018-10-19T16:52:55.883Z,8.00
2018-10-19T16:54:48.821Z,4.00
2018-10-19T16:55:48.878Z,0.00
2018-10-19T16:57:41.871Z,4.00
2018-10-19T16:58:41.922Z,0.00
2018-10-19T17:00:34.907Z,0.00
2018-10-19T17:01:34.966Z,0.00
2018-10-19T17:03:28.020Z,0.00
2018-10-19T17:04:28.013Z,0.00
2018-10-19T17:06:21.030Z,0.00
2018-10-19T17:07:21.093Z,0.00
2018-10-19T17:09:14.150Z,0.00
2018-10-19T17:10:14.139Z,0.00
2018-10-19T17:12:07.173Z,0.00
2018-10-19T17:13:07.182Z,0.00
2018-10-19T17:15:00.244Z,0.00
2018-10-19T17:16:00.233Z,0.00
2018-10-19T17:17:53.236Z,0.00
2018-10-19T17:18:53.276Z,0.00
2018-10-19T17:20:46.274Z,0.00
2018-10-19T17:21:46.329Z,0.00
2018-10-19T17:23:39.325Z,0.00
2018-10-19T17:24:39.377Z,0.00
2018-10-19T17:26:32.357Z,0.00
2018-10-19T17:27:32.416Z,0.00
2018-10-19T17:29:25.406Z,0.00
2018-10-19T17:30:25.470Z,0.00
2018-10-19T17:32:18.440Z,0.00
2018-10-19T17:33:18.612Z,0.00
2018-10-19T17:35:11.545Z,0.00
2018-10-19T17:36:11.560Z,0.00
2018-10-19T17:38:04.524Z,0.00
2018-10-19T17:39:04.596Z,0.00
2018-10-19T17:40:57.619Z,0.00
2018-10-19T17:41:57.650Z,0.00
2018-10-19T17:43:50.609Z,0.00
2018-10-19T17:44:50.677Z,0.00
2018-10-19T17:46:43.664Z,0.00
2018-10-19T17:47:43.816Z,0.00
2018-10-19T17:49:36.711Z,0.00
2018-10-19T17:50:36.761Z,0.00
2018-10-19T17:52:29.741Z,0.00
2018-10-19T17:53:29.803Z,0.00
2018-10-19T17:55:22.805Z,0.00
2018-10-19T17:56:22.860Z,0.00
2018-10-19T17:58:15.843Z,0.00
2018-10-19T17:59:15.974Z,0.00
2018-10-19T18:01:08.890Z,0.00
2018-10-19T18:02:08.944Z,0.00
2018-10-19T18:04:01.929Z,0.00
2018-10-19T18:05:01.994Z,0.00
2018-10-19T18:06:54.973Z,0.00
2018-10-19T18:07:55.062Z,0.00